createdAt,value
2023-03-17T00:01:34.725Z,99820.94
2023-03-17T00:04:08.037Z,99830.47
2023-03-17T00:06:41.350Z,99821.69
2023-03-17T00:09:15.908Z,99825.00
2023-03-17T00:11:52.692Z,99817.03
2023-03-17T00:14:26.130Z,99816.38
2023-03-17T00:17:00.929Z,99825.72
2023-03-17T00:19:35.814Z,99819.97
2023-03-17T00:22:13.911Z,99819.69
2023-03-17T00:24:47.081Z,99827.00
2023-03-17T00:27:20.660Z,99827.19
2023-03-17T00:29:53.661Z,99828.50
2023-03-17T00:32:27.923Z,99827.66
2023-03-17T00:35:00.788Z,99825.84
2023-03-17T00:37:33.935Z,99826.78
2023-03-17T00:40:10.421Z,99828.53
2023-03-17T00:42:43.392Z,99821.75
2023-03-17T00:45:16.996Z,99834.59
2023-03-17T00:47:52.439Z,99834.97
2023-03-17T00:50:28.106Z,99835.53
2023-03-17T00:53:02.203Z,99831.28
2023-03-17T00:55:35.137Z,99834.88
2023-03-17T00:58:13.849Z,99845.25
2023-03-17T01:00:47.527Z,99845.75
2023-03-17T01:03:22.509Z,99843.47
2023-03-17T01:05:57.045Z,99842.19
2023-03-17T01:08:31.483Z,99842.66
2023-03-17T01:11:04.567Z,99851.56
2023-03-17T01:13:38.192Z,99843.31
2023-03-17T01:16:12.359Z,99851.22
2023-03-17T01:18:47.465Z,99849.53
2023-03-17T01:21:20.552Z,99845.63
2023-03-17T01:23:53.565Z,99849.00
2023-03-17T01:26:26.768Z,99854.22
2023-03-17T01:29:00.105Z,99850.91
2023-03-17T01:31:33.311Z,99854.97
2023-03-17T01:34:07.784Z,99855.13
2023-03-17T01:36:41.418Z,99862.41
2023-03-17T01:39:14.457Z,99855.50
2023-03-17T01:41:47.553Z,99864.63
2023-03-17T01:44:20.594Z,99868.09
2023-03-17T01:46:53.788Z,99859.94
2023-03-17T01:49:30.306Z,99862.03
2023-03-17T01:52:06.105Z,99863.69
2023-03-17T01:54:41.098Z,99872.09
2023-03-17T01:57:17.151Z,99874.25
2023-03-17T01:59:52.014Z,99874.25
2023-03-17T02:02:26.867Z,99882.09
2023-03-17T02:05:01.647Z,99882.84
2023-03-17T02:07:34.730Z,99877.25
2023-03-17T02:10:08.842Z,99885.06
2023-03-17T02:12:43.890Z,99879.00
2023-03-17T02:15:17.851Z,99876.38
2023-03-17T02:17:50.881Z,99885.16
2023-03-17T02:20:42.482Z,99892.66
2023-03-17T02:23:18.129Z,99877.06
2023-03-17T02:25:53.115Z,99892.56
2023-03-17T02:28:27.331Z,99897.50
2023-03-17T02:31:00.236Z,99891.63
2023-03-17T02:33:33.563Z,99893.31
2023-03-17T02:36:07.276Z,99896.31
2023-03-17T02:38:42.277Z,99901.09
2023-03-17T02:41:15.236Z,99911.13
2023-03-17T02:43:48.080Z,99905.75
2023-03-17T02:46:21.227Z,99904.41
2023-03-17T02:48:55.242Z,99909.84
2023-03-17T02:51:29.202Z,99917.69
2023-03-17T02:54:03.713Z,99906.59
2023-03-17T02:56:36.856Z,99913.16
2023-03-17T02:59:10.169Z,99919.63
2023-03-17T03:01:43.576Z,99918.78
2023-03-17T03:04:16.519Z,99926.38
2023-03-17T03:06:49.443Z,99929.25
2023-03-17T03:09:24.286Z,99929.00
2023-03-17T03:11:58.692Z,99929.00
2023-03-17T03:14:32.519Z,99929.78
2023-03-17T03:17:05.885Z,99929.88
2023-03-17T03:19:40.722Z,99936.34
2023-03-17T03:22:13.812Z,99931.81
2023-03-17T03:24:48.600Z,99938.72
2023-03-17T03:27:21.734Z,99944.50
2023-03-17T03:29:54.591Z,99951.91
2023-03-17T03:32:27.708Z,99954.19
2023-03-17T03:35:01.502Z,99954.47
2023-03-17T03:37:34.613Z,99957.88
2023-03-17T03:40:10.306Z,99952.00
2023-03-17T03:42:43.689Z,99957.22
2023-03-17T03:45:16.681Z,99957.88
2023-03-17T03:47:49.561Z,99959.41
2023-03-17T03:50:24.382Z,99965.56
2023-03-17T03:52:57.515Z,99970.31
2023-03-17T03:55:32.135Z,99973.56
2023-03-17T03:58:06.635Z,99969.44
2023-03-17T04:00:39.809Z,99971.09
2023-03-17T04:03:12.839Z,99975.00
2023-03-17T04:05:46.087Z,99970.75
2023-03-17T04:08:19.231Z,99980.63
2023-03-17T04:10:54.100Z,99985.41
2023-03-17T04:13:27.548Z,99987.09
2023-03-17T04:16:01.401Z,99989.34
2023-03-17T04:18:35.719Z,99986.88
2023-03-17T04:21:09.432Z,99997.25
2023-03-17T04:23:42.458Z,99993.50
2023-03-17T04:26:18.791Z,99995.53
2023-03-17T04:28:52.527Z,99999.03
2023-03-17T04:31:25.903Z,99994.94
2023-03-17T04:33:59.516Z,100001.94
2023-03-17T04:36:32.923Z,100007.47
2023-03-17T04:39:08.511Z,100014.88
2023-03-17T04:41:42.943Z,100013.94
2023-03-17T04:44:16.123Z,100021.63
2023-03-17T04:46:49.209Z,100014.03
2023-03-17T04:49:22.701Z,100016.06
2023-03-17T04:51:55.915Z,100022.38
2023-03-17T04:54:29.251Z,100029.41
2023-03-17T04:57:03.634Z,100026.88
2023-03-17T04:59:36.925Z,100036.78
2023-03-17T05:02:10.027Z,100035.84
2023-03-17T05:04:43.417Z,100046.09
2023-03-17T05:07:16.494Z,100040.56
2023-03-17T05:09:49.651Z,100048.56
2023-03-17T05:12:26.123Z,100045.22
2023-03-17T05:14:59.468Z,100057.91
2023-03-17T05:17:32.908Z,100065.75
2023-03-17T05:20:06.365Z,100071.72
2023-03-17T05:22:39.301Z,100063.88
2023-03-17T05:25:12.488Z,100069.50
2023-03-17T05:27:46.911Z,100072.38
2023-03-17T05:30:20.206Z,100072.38
2023-03-17T05:32:53.197Z,100078.25
2023-03-17T05:35:26.324Z,100078.25
2023-03-17T05:37:59.378Z,100077.00
2023-03-17T05:40:32.889Z,100080.22
2023-03-17T05:43:07.976Z,100081.13
2023-03-17T05:45:41.275Z,100085.91
2023-03-17T05:48:14.479Z,100090.75
2023-03-17T05:50:47.401Z,100092.84
2023-03-17T05:53:20.819Z,100103.75
2023-03-17T05:55:53.828Z,100108.94
2023-03-17T05:58:30.830Z,100104.19
2023-03-17T06:01:03.745Z,100101.91
2023-03-17T06:03:38.697Z,100110.16
2023-03-17T06:06:12.543Z,100114.44
2023-03-17T06:08:45.902Z,100111.75
2023-03-17T06:11:20.635Z,100115.50
2023-03-17T06:13:57.228Z,100116.22
2023-03-17T06:16:33.155Z,100112.50
2023-03-17T06:19:07.405Z,100110.25
2023-03-17T06:21:41.314Z,100112.72
2023-03-17T06:24:14.469Z,100112.44
2023-03-17T06:26:47.543Z,100117.19
2023-03-17T06:29:22.722Z,100113.44
2023-03-17T06:31:56.977Z,100120.59
2023-03-17T06:34:32.715Z,100133.59
2023-03-17T06:37:06.093Z,100125.69
2023-03-17T06:39:39.343Z,100126.91
2023-03-17T06:42:12.367Z,100128.28
2023-03-17T06:44:47.155Z,100128.69
2023-03-17T06:47:20.171Z,100137.38
2023-03-17T06:49:53.550Z,100144.72
2023-03-17T06:52:27.839Z,100134.03
2023-03-17T06:55:01.187Z,100134.03
2023-03-17T06:57:34.468Z,100145.81
2023-03-17T07:00:10.018Z,100152.31
2023-03-17T07:02:43.149Z,100148.91
2023-03-17T07:05:16.499Z,100146.00
2023-03-17T07:07:50.214Z,100156.06
2023-03-17T07:10:23.470Z,100162.31
2023-03-17T07:12:59.092Z,100162.25
2023-03-17T07:15:35.980Z,100166.66
2023-03-17T07:18:09.462Z,100155.91
2023-03-17T07:20:42.648Z,100153.44
2023-03-17T07:23:16.373Z,100153.22
2023-03-17T07:25:49.662Z,100150.28
2023-03-17T07:28:22.805Z,100154.28
2023-03-17T07:30:58.006Z,100151.63
2023-03-17T07:33:33.814Z,100152.28
2023-03-17T07:36:09.081Z,100145.38
2023-03-17T07:38:42.170Z,100150.28
2023-03-17T07:41:15.191Z,100140.44
2023-03-17T07:43:48.092Z,100147.09
2023-03-17T07:46:22.994Z,100153.91
2023-03-17T07:48:56.915Z,100163.56
2023-03-17T07:51:30.387Z,100152.00
2023-03-17T07:54:04.660Z,100157.97
2023-03-17T07:56:38.071Z,100155.97
2023-03-17T07:59:11.214Z,100152.00
2023-03-17T08:01:45.634Z,100155.34
2023-03-17T08:04:18.757Z,100152.06
2023-03-17T08:06:52.363Z,100150.13
2023-03-17T08:09:25.698Z,100151.56
2023-03-17T08:12:00.350Z,100153.69
2023-03-17T08:14:33.957Z,100160.34
2023-03-17T08:17:08.956Z,100165.06
2023-03-17T08:19:42.496Z,100160.44
2023-03-17T08:22:15.503Z,100164.03
2023-03-17T08:24:48.924Z,100171.03
2023-03-17T08:27:22.305Z,100159.75
2023-03-17T08:29:55.786Z,100169.34
2023-03-17T08:32:30.169Z,100172.72
2023-03-17T08:35:03.377Z,100161.66
2023-03-17T08:37:37.909Z,100161.91
2023-03-17T08:40:11.752Z,100158.19
2023-03-17T08:42:45.095Z,100158.81
2023-03-17T08:45:19.465Z,100155.50
2023-03-17T08:47:54.263Z,100152.28
2023-03-17T08:50:27.967Z,100155.91
2023-03-17T08:53:01.594Z,100162.00
2023-03-17T08:55:34.552Z,100159.00
2023-03-17T08:58:07.587Z,100140.53
2023-03-17T09:00:40.917Z,100138.56
2023-03-17T09:03:15.637Z,100151.38
2023-03-17T09:05:50.019Z,100149.31
2023-03-17T09:08:23.813Z,100139.22
2023-03-17T09:10:57.084Z,100141.50
2023-03-17T09:13:30.413Z,100140.41
2023-03-17T09:16:04.038Z,100138.03
2023-03-17T09:18:38.946Z,100140.31
2023-03-17T09:21:12.521Z,100140.97
2023-03-17T09:23:45.468Z,100145.16
2023-03-17T09:26:19.676Z,100144.56
2023-03-17T09:28:52.903Z,100143.56
2023-03-17T09:31:27.273Z,100129.34
2023-03-17T09:34:02.064Z,100135.44
2023-03-17T09:36:35.112Z,100143.31
2023-03-17T09:39:08.922Z,100144.25
2023-03-17T09:42:09.047Z,100147.44
2023-03-17T09:44:49.067Z,100137.03
2023-03-17T09:47:35.539Z,100128.50
2023-03-17T09:50:14.212Z,100135.63
2023-03-17T09:52:50.351Z,100131.59
2023-03-17T09:55:27.741Z,100136.19
2023-03-17T09:58:03.513Z,100137.44
2023-03-17T10:00:36.469Z,100137.00
2023-03-17T10:03:11.253Z,100138.81
2023-03-17T10:05:46.940Z,100135.41
2023-03-17T10:08:31.093Z,100141.88
2023-03-17T10:11:09.527Z,100134.47
2023-03-17T10:13:50.641Z,100134.88
2023-03-17T10:16:28.581Z,100129.47
2023-03-17T10:19:04.516Z,100130.75
2023-03-17T10:21:43.068Z,100127.06
2023-03-17T10:24:16.097Z,100122.38
2023-03-17T10:26:51.167Z,100131.84
2023-03-17T10:29:24.899Z,100118.66
2023-03-17T10:31:58.736Z,100128.31
2023-03-17T10:34:32.747Z,100116.47
2023-03-17T10:37:08.764Z,100121.09
2023-03-17T10:39:46.909Z,100122.34
2023-03-17T10:42:24.638Z,100115.66
2023-03-17T10:44:58.505Z,100116.50
2023-03-17T10:47:32.748Z,100107.34
2023-03-17T10:50:18.601Z,100113.31
2023-03-17T10:52:55.430Z,100107.56
2023-03-17T10:55:29.926Z,100111.81
2023-03-17T10:58:04.476Z,100122.56
2023-03-17T11:00:39.166Z,100107.06
2023-03-17T11:03:13.988Z,100102.78
2023-03-17T11:05:56.734Z,100110.00
2023-03-17T11:08:34.154Z,100092.78
2023-03-17T11:11:08.910Z,100087.81
2023-03-17T11:13:42.325Z,100089.47
2023-03-17T11:16:22.088Z,100089.31
2023-03-17T11:18:56.620Z,100089.75
2023-03-17T11:21:31.345Z,100095.63
2023-03-17T11:24:09.409Z,100094.09
2023-03-17T11:26:50.622Z,100088.94
2023-03-17T11:29:47.501Z,100084.59
2023-03-17T11:32:27.684Z,100086.13
2023-03-17T11:35:06.622Z,100094.88
2023-03-17T11:37:49.636Z,100093.13
2023-03-17T11:40:31.962Z,100072.44
2023-03-17T11:43:20.519Z,100071.03
2023-03-17T11:45:56.444Z,100079.44
2023-03-17T11:48:35.957Z,100075.75
2023-03-17T11:51:16.580Z,100073.19
2023-03-17T11:54:04.196Z,100069.69
2023-03-17T11:56:43.509Z,100072.81
2023-03-17T11:59:21.746Z,100067.75
2023-03-17T12:01:58.257Z,100072.25
2023-03-17T12:04:34.682Z,100083.16
2023-03-17T12:07:14.328Z,100069.66
2023-03-17T12:09:49.879Z,100077.94
2023-03-17T12:12:28.602Z,100069.53
2023-03-17T12:15:05.337Z,100070.47
2023-03-17T12:17:40.646Z,100064.88
2023-03-17T12:20:18.147Z,100057.66
2023-03-17T12:22:57.107Z,100064.44
2023-03-17T12:25:32.788Z,100058.84
2023-03-17T12:28:12.117Z,100060.03
2023-03-17T12:30:49.421Z,100063.94
2023-03-17T12:33:27.599Z,100061.53
2023-03-17T12:36:01.517Z,100063.25
2023-03-17T12:38:37.206Z,100059.16
2023-03-17T12:41:19.106Z,100060.75
2023-03-17T12:44:01.291Z,100061.38
2023-03-17T12:46:42.118Z,100060.31
2023-03-17T12:49:25.174Z,100060.78
2023-03-17T12:52:04.254Z,100064.50
2023-03-17T12:54:38.707Z,100071.41
2023-03-17T12:57:14.356Z,100063.97
2023-03-17T12:59:49.717Z,100060.75
2023-03-17T13:02:32.166Z,100062.66
2023-03-17T13:05:09.267Z,100057.13
2023-03-17T13:07:47.825Z,100056.63
2023-03-17T13:10:36.125Z,100055.56
2023-03-17T13:13:28.192Z,100055.59
2023-03-17T13:16:05.714Z,100048.78
2023-03-17T13:18:49.515Z,100059.97
2023-03-17T13:21:26.467Z,100056.06
2023-03-17T13:24:20.014Z,100064.28
2023-03-17T13:26:58.483Z,100064.34
2023-03-17T13:29:43.588Z,100069.13
2023-03-17T13:32:34.104Z,100056.03
2023-03-17T13:35:26.699Z,100067.53
2023-03-17T13:38:21.070Z,100059.47
2023-03-17T13:41:05.765Z,100061.81
2023-03-17T13:43:46.304Z,100055.66
2023-03-17T13:46:26.794Z,100064.72
2023-03-17T13:49:04.237Z,100064.31
2023-03-17T13:51:41.896Z,100059.50
2023-03-17T13:54:22.124Z,100063.84
2023-03-17T13:56:55.822Z,100061.63
2023-03-17T13:59:36.569Z,100070.38
2023-03-17T14:02:16.645Z,100058.25
2023-03-17T14:04:53.469Z,100065.47
2023-03-17T14:07:29.539Z,100064.41
2023-03-17T14:10:05.516Z,100072.50
2023-03-17T14:12:41.278Z,100074.44
2023-03-17T14:15:21.270Z,100070.06
2023-03-17T14:17:57.489Z,100068.25
2023-03-17T14:20:31.851Z,100080.38
2023-03-17T14:23:06.666Z,100068.38
2023-03-17T14:25:41.085Z,100077.31
2023-03-17T14:28:17.345Z,100070.31
2023-03-17T14:30:52.313Z,100074.63
2023-03-17T14:33:27.151Z,100070.06
2023-03-17T14:36:01.677Z,100073.69
2023-03-17T14:38:37.042Z,100073.69
2023-03-17T14:41:17.612Z,100070.41
2023-03-17T14:43:52.235Z,100074.63
2023-03-17T14:46:26.191Z,100072.75
2023-03-17T14:49:01.307Z,100071.97
2023-03-17T14:51:36.026Z,100083.84
2023-03-17T14:54:15.298Z,100082.69
2023-03-17T14:56:48.956Z,100075.00
2023-03-17T14:59:24.688Z,100089.06
2023-03-17T15:01:58.430Z,100079.25
2023-03-17T15:04:32.070Z,100081.94
2023-03-17T15:07:07.550Z,100086.41
2023-03-17T15:09:42.394Z,100088.53
2023-03-17T15:12:18.130Z,100088.31
2023-03-17T15:14:53.432Z,100096.06
2023-03-17T15:17:28.754Z,100098.09
2023-03-17T15:20:04.441Z,100101.69
2023-03-17T15:22:42.483Z,100097.78
2023-03-17T15:25:21.163Z,100103.13
2023-03-17T15:27:54.911Z,100097.47
2023-03-17T15:30:37.402Z,100104.38
2023-03-17T15:33:19.150Z,100108.31
2023-03-17T15:35:52.446Z,100099.81
2023-03-17T15:38:26.696Z,100108.09
2023-03-17T15:41:01.325Z,100104.72
2023-03-17T15:43:34.787Z,100112.13
2023-03-17T15:46:09.148Z,100099.81
2023-03-17T15:48:42.151Z,100111.25
2023-03-17T15:51:16.302Z,100118.69
2023-03-17T15:53:49.496Z,100116.44
2023-03-17T15:56:24.483Z,100109.09
2023-03-17T15:58:57.694Z,100122.81
2023-03-17T16:01:31.051Z,100116.00
2023-03-17T16:04:04.804Z,100119.91
2023-03-17T16:06:37.941Z,100122.28
2023-03-17T16:09:15.787Z,100130.16
2023-03-17T16:11:52.266Z,100129.91
2023-03-17T16:14:25.625Z,100135.56
2023-03-17T16:16:59.165Z,100133.22
2023-03-17T16:19:32.443Z,100143.28
2023-03-17T16:22:05.673Z,100147.38
2023-03-17T16:24:38.842Z,100154.91
2023-03-17T16:27:16.282Z,100148.38
2023-03-17T16:29:49.404Z,100144.00
2023-03-17T16:32:22.250Z,100153.22
2023-03-17T16:34:55.507Z,100154.06
2023-03-17T16:37:28.992Z,100152.63
2023-03-17T16:40:02.148Z,100156.72
2023-03-17T16:42:36.600Z,100163.09
2023-03-17T16:45:15.130Z,100163.75
2023-03-17T16:47:48.210Z,100164.22
2023-03-17T16:50:22.633Z,100172.28
2023-03-17T16:52:55.694Z,100164.31
2023-03-17T16:55:29.981Z,100180.25
2023-03-17T16:58:07.950Z,100175.47
2023-03-17T17:00:41.473Z,100175.66
2023-03-17T17:03:14.963Z,100174.34
2023-03-17T17:05:48.143Z,100177.56
2023-03-17T17:08:21.037Z,100176.84
2023-03-17T17:10:54.222Z,100181.44
2023-03-17T17:13:29.226Z,100183.44
2023-03-17T17:16:03.238Z,100192.25
2023-03-17T17:18:37.949Z,100195.47
2023-03-17T17:21:11.092Z,100190.06
2023-03-17T17:23:44.792Z,100186.06
2023-03-17T17:26:18.068Z,100199.50
2023-03-17T17:28:52.389Z,100201.75
2023-03-17T17:31:25.610Z,100195.97
2023-03-17T17:33:59.244Z,100205.56
2023-03-17T17:36:32.507Z,100202.84
2023-03-17T17:39:06.873Z,100203.28
2023-03-17T17:41:39.826Z,100200.97
2023-03-17T17:44:14.087Z,100219.28
2023-03-17T17:46:47.050Z,100212.53
2023-03-17T17:49:21.204Z,100210.47
2023-03-17T17:51:54.478Z,100218.13
2023-03-17T17:54:27.949Z,100222.44
2023-03-17T17:57:01.694Z,100215.88
2023-03-17T17:59:35.983Z,100141.16
2023-03-17T18:02:08.885Z,100217.69
2023-03-17T18:04:42.277Z,100219.56
2023-03-17T18:07:15.500Z,100217.69
2023-03-17T18:09:48.741Z,100218.63
2023-03-17T18:12:22.228Z,100217.31
2023-03-17T18:14:56.526Z,100221.53
2023-03-17T18:17:31.986Z,100215.97
2023-03-17T18:20:06.718Z,100214.44
2023-03-17T18:22:41.692Z,100216.84
2023-03-17T18:25:15.467Z,100218.72
2023-03-17T18:27:48.520Z,100221.09
2023-03-17T18:30:24.331Z,100231.50
2023-03-17T18:33:00.100Z,100229.53
2023-03-17T18:35:34.544Z,100229.63
2023-03-17T18:38:08.347Z,100237.75
2023-03-17T18:40:41.762Z,100236.56
2023-03-17T18:43:14.636Z,100232.63
2023-03-17T18:45:49.472Z,100239.31
2023-03-17T18:48:22.803Z,100237.41
2023-03-17T18:50:55.734Z,100245.16
2023-03-17T18:53:30.776Z,100244.66
2023-03-17T18:56:03.863Z,100243.81
2023-03-17T18:58:37.368Z,100238.56
2023-03-17T19:01:11.979Z,100247.28
2023-03-17T19:03:45.175Z,100244.81
2023-03-17T19:06:19.973Z,100252.84
2023-03-17T19:08:52.919Z,100249.09
2023-03-17T19:11:26.120Z,100247.53
2023-03-17T19:14:01.520Z,100262.25
2023-03-17T19:16:36.865Z,100264.97
2023-03-17T19:19:09.915Z,100256.28
2023-03-17T19:21:43.390Z,100261.66
2023-03-17T19:24:16.304Z,100258.00
2023-03-17T19:26:49.425Z,100271.66
2023-03-17T19:29:22.342Z,100267.38
2023-03-17T19:31:57.292Z,100269.28
2023-03-17T19:34:31.789Z,100265.19
2023-03-17T19:37:05.607Z,100270.91
2023-03-17T19:39:38.738Z,100268.44
2023-03-17T19:42:12.435Z,100270.56
2023-03-17T19:44:45.751Z,100268.16
2023-03-17T19:47:20.441Z,100269.03
2023-03-17T19:49:53.884Z,100268.44
2023-03-17T19:52:26.779Z,100264.25
2023-03-17T19:54:59.997Z,100273.81
2023-03-17T19:57:32.980Z,100276.44
2023-03-17T20:00:12.069Z,100270.91
2023-03-17T20:02:46.469Z,100272.69
2023-03-17T20:05:19.904Z,100277.75
2023-03-17T20:07:52.884Z,100271.59
2023-03-17T20:10:25.832Z,100277.75
2023-03-17T20:13:00.338Z,100278.59
2023-03-17T20:15:33.831Z,100271.75
2023-03-17T20:18:08.537Z,100281.59
2023-03-17T20:20:47.370Z,100268.94
2023-03-17T20:23:21.603Z,100273.06
2023-03-17T20:25:54.686Z,100269.31
2023-03-17T20:28:29.969Z,100264.66
2023-03-17T20:31:04.693Z,100269.56
2023-03-17T20:33:39.415Z,100267.94
2023-03-17T20:36:14.102Z,100269.31
2023-03-17T20:38:47.195Z,100261.19
2023-03-17T20:41:21.048Z,100260.16
2023-03-17T20:43:54.136Z,100262.09
2023-03-17T20:46:27.131Z,100259.63
2023-03-17T20:49:02.098Z,100259.47
2023-03-17T20:51:35.567Z,100259.22
2023-03-17T20:54:09.411Z,100251.59
2023-03-17T20:56:42.574Z,100250.50
2023-03-17T20:59:15.749Z,100249.66
2023-03-17T21:01:49.203Z,100244.63
2023-03-17T21:04:23.483Z,100245.91
2023-03-17T21:06:56.289Z,100245.03
2023-03-17T21:09:29.801Z,100245.38
2023-03-17T21:12:03.828Z,100245.03
2023-03-17T21:14:37.627Z,100243.19
2023-03-17T21:17:11.812Z,100246.75
2023-03-17T21:19:46.439Z,100245.91
2023-03-17T21:22:19.314Z,100237.63
2023-03-17T21:24:53.137Z,100239.16
2023-03-17T21:27:26.246Z,100234.63
2023-03-17T21:29:59.445Z,100229.75
2023-03-17T21:32:32.928Z,100231.44
2023-03-17T21:35:08.093Z,100235.63
2023-03-17T21:37:41.339Z,100234.97
2023-03-17T21:40:15.720Z,100231.41
2023-03-17T21:42:49.698Z,100224.28
2023-03-17T21:45:22.965Z,100234.97
2023-03-17T21:47:56.538Z,100226.09
2023-03-17T21:50:31.658Z,100222.66
2023-03-17T21:53:04.780Z,100212.59
2023-03-17T21:55:38.435Z,100224.03
2023-03-17T21:58:11.721Z,100212.59
2023-03-17T22:00:46.110Z,100212.06
2023-03-17T22:03:19.523Z,100210.38
2023-03-17T22:05:54.700Z,100210.22
2023-03-17T22:08:27.783Z,100207.22
2023-03-17T22:11:00.870Z,100204.75
2023-03-17T22:13:34.459Z,100212.59
2023-03-17T22:16:09.290Z,100213.25
2023-03-17T22:18:42.457Z,100210.97
2023-03-17T22:21:16.746Z,100211.06
2023-03-17T22:23:49.673Z,100210.13
2023-03-17T22:26:23.111Z,100214.28
2023-03-17T22:28:56.451Z,100215.50
2023-03-17T22:31:30.139Z,100207.72
2023-03-17T22:34:03.470Z,100214.97
2023-03-17T22:36:37.999Z,100219.44
2023-03-17T22:39:11.938Z,100217.19
2023-03-17T22:41:45.249Z,100213.53
2023-03-17T22:44:18.742Z,100210.63
2023-03-17T22:46:51.800Z,100217.72
2023-03-17T22:49:24.823Z,100206.19
2023-03-17T22:51:59.024Z,100209.94
2023-03-17T22:54:31.909Z,100210.53
2023-03-17T22:57:05.677Z,100206.00
2023-03-17T22:59:39.006Z,100207.88
2023-03-17T23:02:12.101Z,100204.38
2023-03-17T23:04:45.502Z,100202.66
2023-03-17T23:07:20.324Z,100207.03
2023-03-17T23:09:53.354Z,100207.78
2023-03-17T23:12:28.259Z,100210.19
2023-03-17T23:15:02.239Z,100210.63
2023-03-17T23:17:35.819Z,100205.59
2023-03-17T23:20:09.352Z,100211.03
2023-03-17T23:22:43.939Z,100208.16
2023-03-17T23:25:16.998Z,100202.66
2023-03-17T23:27:50.362Z,100205.50
2023-03-17T23:30:24.570Z,100199.78
2023-03-17T23:32:57.510Z,100203.63
2023-03-17T23:35:30.470Z,100194.38
2023-03-17T23:38:05.147Z,100207.66
2023-03-17T23:40:38.868Z,100202.41
2023-03-17T23:43:12.357Z,100200.81
2023-03-17T23:45:45.513Z,100203.22
2023-03-17T23:48:18.576Z,100195.19
2023-03-17T23:50:52.399Z,100196.00
2023-03-17T23:53:27.939Z,100189.09
2023-03-17T23:56:01.331Z,100184.59
2023-03-17T23:58:34.496Z,100184.31
